createdAt,value
2022-10-22T00:01:46.894Z,16.15
2022-10-22T00:06:47.767Z,17.33
2022-10-22T00:11:46.678Z,16.52
2022-10-22T00:16:47.299Z,15.48
2022-10-22T00:21:46.199Z,16.70
2022-10-22T00:26:45.002Z,16.83
2022-10-22T00:31:46.941Z,15.85
2022-10-22T00:36:47.364Z,16.20
2022-10-22T00:41:47.231Z,21.25
2022-10-22T00:46:46.072Z,18.02
2022-10-22T00:51:46.855Z,20.83
2022-10-22T00:56:46.479Z,19.10
2022-10-22T01:01:46.948Z,18.90
2022-10-22T01:06:47.838Z,16.25
2022-10-22T01:11:58.780Z,17.58
2022-10-22T01:17:04.194Z,18.60
2022-10-22T01:22:09.743Z,14.32
2022-10-22T01:27:21.369Z,13.85
2022-10-22T01:32:25.075Z,13.02
2022-10-22T01:37:27.347Z,13.13
2022-10-22T01:42:26.605Z,9.50
2022-10-22T01:47:38.237Z,12.73
2022-10-22T01:52:53.779Z,11.60
2022-10-22T01:58:03.234Z,10.98
2022-10-22T02:03:09.241Z,11.52
2022-10-22T02:08:11.148Z,12.45
2022-10-22T02:13:14.466Z,9.75
2022-10-22T02:23:14.741Z,8.07
2022-10-22T02:28:25.163Z,9.18
2022-10-22T02:33:30.064Z,13.77
2022-10-22T02:38:30.474Z,9.23
2022-10-22T02:43:30.531Z,11.75
2022-10-22T02:48:30.935Z,12.73
2022-10-22T02:53:29.815Z,8.35
2022-10-22T02:58:28.844Z,8.90
2022-10-22T03:03:27.626Z,13.55
2022-10-22T03:08:27.935Z,9.95
2022-10-22T03:13:26.841Z,9.38
2022-10-22T03:18:27.594Z,11.02
2022-10-22T03:23:27.826Z,13.57
2022-10-22T03:28:27.437Z,9.90
2022-10-22T03:33:26.379Z,10.70
2022-10-22T03:38:25.414Z,14.55
2022-10-22T03:43:26.024Z,10.40
2022-10-22T03:48:24.920Z,7.78
2022-10-22T03:53:23.751Z,11.18
2022-10-22T03:58:22.692Z,12.73
2022-10-22T04:03:22.909Z,9.25
2022-10-22T04:08:21.811Z,12.65
2022-10-22T04:13:20.849Z,10.55
2022-10-22T04:18:19.845Z,10.85
2022-10-22T04:23:20.144Z,10.13
2022-10-22T04:28:19.010Z,14.07
2022-10-22T04:33:18.008Z,12.23
2022-10-22T04:38:17.167Z,13.10
2022-10-22T04:43:18.463Z,15.85
2022-10-22T04:48:17.328Z,10.68
2022-10-22T04:53:16.150Z,15.93
2022-10-22T04:58:14.936Z,10.32
2022-10-22T05:03:15.191Z,9.70
2022-10-22T05:08:17.826Z,11.98
2022-10-22T05:13:30.298Z,13.15
2022-10-22T05:18:31.047Z,15.43
2022-10-22T05:23:30.573Z,13.23
2022-10-22T05:28:29.477Z,14.10
2022-10-22T05:33:30.904Z,15.70
2022-10-22T05:38:29.801Z,21.85
2022-10-22T05:43:28.882Z,18.33
2022-10-22T05:48:27.751Z,17.92
2022-10-22T05:53:28.309Z,12.90
2022-10-22T05:58:27.249Z,11.90
2022-10-22T06:03:27.520Z,12.70
2022-10-22T06:08:28.116Z,12.43
2022-10-22T06:13:27.108Z,17.05
2022-10-22T06:18:26.025Z,16.60
2022-10-22T06:23:24.842Z,19.00
2022-10-22T06:28:25.103Z,17.30
2022-10-22T06:33:23.954Z,20.60
2022-10-22T06:38:22.956Z,15.95
2022-10-22T06:43:21.764Z,12.38
2022-10-22T06:48:22.984Z,12.73
2022-10-22T06:53:21.821Z,8.57
2022-10-22T06:58:20.843Z,10.40
2022-10-22T07:03:23.839Z,12.23
2022-10-22T07:13:22.388Z,13.73
2022-10-22T07:18:23.166Z,8.70
2022-10-22T07:23:25.367Z,11.73
2022-10-22T07:28:26.540Z,18.58
2022-10-22T07:33:27.490Z,16.00
2022-10-22T07:38:27.021Z,12.45
2022-10-22T07:43:26.726Z,14.32
2022-10-22T07:48:27.288Z,10.63
2022-10-22T07:53:26.202Z,21.48
2022-10-22T07:58:25.852Z,17.48
2022-10-22T08:03:29.080Z,9.68
2022-10-22T08:08:30.830Z,13.35
2022-10-22T08:13:31.581Z,11.57
2022-10-22T08:19:24.328Z,10.32
2022-10-22T08:24:24.614Z,10.70
2022-10-22T08:29:38.501Z,7.20
2022-10-22T08:34:37.478Z,14.43
2022-10-22T08:39:38.144Z,13.60
2022-10-22T08:44:54.240Z,27.13
2022-10-22T08:49:57.117Z,20.33
2022-10-22T08:54:59.679Z,9.88
2022-10-22T09:00:05.840Z,10.48
2022-10-22T09:05:17.324Z,11.32
2022-10-22T09:10:19.509Z,10.70
2022-10-22T09:15:23.413Z,12.95
2022-10-22T09:20:29.971Z,10.05
2022-10-22T09:25:33.299Z,9.35
2022-10-22T09:30:36.903Z,10.68
2022-10-22T09:35:45.211Z,11.23
2022-10-22T09:40:50.361Z,10.60
2022-10-22T09:45:50.165Z,9.45
2022-10-22T09:50:51.041Z,9.32
2022-10-22T09:55:58.360Z,10.95
2022-10-22T10:00:58.863Z,13.02
2022-10-22T10:06:04.797Z,11.68
2022-10-22T10:11:12.553Z,10.65
2022-10-22T10:16:22.189Z,12.55
2022-10-22T10:21:31.811Z,11.05
2022-10-22T10:26:39.274Z,8.82
2022-10-22T10:31:48.224Z,9.68
2022-10-22T10:36:59.560Z,10.77
2022-10-22T10:42:07.531Z,9.60
2022-10-22T10:47:20.479Z,10.27
2022-10-22T10:52:31.601Z,9.63
2022-10-22T10:57:43.774Z,13.57
2022-10-22T11:03:23.680Z,11.23
2022-10-22T11:08:26.025Z,8.60
2022-10-22T11:13:32.480Z,7.57
2022-10-22T11:18:37.390Z,10.50
2022-10-22T11:23:42.514Z,12.18
2022-10-22T11:28:49.041Z,7.97
2022-10-22T11:34:00.459Z,8.50
2022-10-22T11:39:09.031Z,11.00
2022-10-22T11:44:14.718Z,8.00
2022-10-22T11:49:25.208Z,10.13
2022-10-22T11:54:43.537Z,9.18
2022-10-22T11:59:51.434Z,8.45
2022-10-22T12:04:50.285Z,10.15
2022-10-22T12:14:59.409Z,12.85
2022-10-22T12:20:03.519Z,13.40
2022-10-22T12:25:04.298Z,12.85
2022-10-22T12:30:19.043Z,9.90
2022-10-22T12:35:21.238Z,11.70
2022-10-22T12:40:22.735Z,9.55
2022-10-22T12:45:24.580Z,9.38
2022-10-22T12:50:30.604Z,7.55
2022-10-22T12:55:29.431Z,11.95
2022-10-22T13:00:35.865Z,10.30
2022-10-22T13:05:40.214Z,8.88
2022-10-22T13:10:41.217Z,8.45
2022-10-22T13:15:41.843Z,8.85
2022-10-22T13:20:52.130Z,11.73
2022-10-22T13:25:59.543Z,7.07
2022-10-22T13:31:01.247Z,9.25
2022-10-22T13:36:00.360Z,9.32
2022-10-22T13:40:59.808Z,10.00
2022-10-22T13:46:01.729Z,8.02
2022-10-22T13:51:00.614Z,9.73
2022-10-22T13:55:59.449Z,9.65
2022-10-22T14:01:02.993Z,9.27
2022-10-22T14:06:02.128Z,10.27
2022-10-22T14:11:01.049Z,15.27
2022-10-22T14:16:01.204Z,16.25
2022-10-22T14:21:04.918Z,12.38
2022-10-22T14:26:04.884Z,15.02
2022-10-22T14:31:05.074Z,11.80
2022-10-22T14:36:03.924Z,12.43
2022-10-22T14:41:02.782Z,11.43
2022-10-22T14:46:01.592Z,12.60
2022-10-22T14:51:01.774Z,35.92
2022-10-22T14:56:01.663Z,42.58
2022-10-22T15:01:03.351Z,21.65
2022-10-22T15:06:03.673Z,21.55
2022-10-22T15:11:03.511Z,29.80
2022-10-22T15:16:02.932Z,22.05
2022-10-22T15:21:04.744Z,28.35
2022-10-22T15:26:03.510Z,30.60
2022-10-22T15:31:02.483Z,26.75
2022-10-22T15:36:13.373Z,26.42
2022-10-22T15:41:13.906Z,35.08
2022-10-22T15:46:14.628Z,37.90
2022-10-22T15:51:18.310Z,40.72
2022-10-22T15:56:17.304Z,38.10
2022-10-22T16:01:16.193Z,39.45
2022-10-22T16:06:16.400Z,45.35
2022-10-22T16:11:15.233Z,42.08
2022-10-22T16:16:14.055Z,37.35
2022-10-22T16:21:15.501Z,43.15
2022-10-22T16:26:16.545Z,37.73
2022-10-22T16:31:17.307Z,37.40
2022-10-22T16:36:18.576Z,39.50
2022-10-22T16:41:20.178Z,45.53
2022-10-22T16:46:20.862Z,32.60
2022-10-22T16:51:20.994Z,37.88
2022-10-22T16:56:21.578Z,59.20
2022-10-22T17:01:21.928Z,65.28
2022-10-22T17:06:20.867Z,70.88
2022-10-22T17:11:23.579Z,57.15
2022-10-22T17:16:25.056Z,59.03
2022-10-22T17:21:24.702Z,48.72
2022-10-22T17:26:26.976Z,43.72
2022-10-22T17:36:26.155Z,37.22
2022-10-22T17:41:29.576Z,33.50
2022-10-22T17:46:34.209Z,53.15
2022-10-22T17:51:33.782Z,43.70
2022-10-22T17:56:34.023Z,41.45
2022-10-22T18:01:34.579Z,42.78
2022-10-22T18:06:34.361Z,35.63
2022-10-22T18:11:36.642Z,28.77
2022-10-22T18:16:35.717Z,40.90
2022-10-22T18:21:34.652Z,38.72
2022-10-22T18:26:34.829Z,32.63
2022-10-22T18:31:33.798Z,36.97
2022-10-22T18:36:32.810Z,32.08
2022-10-22T18:41:33.300Z,29.23
2022-10-22T18:46:38.412Z,22.73
2022-10-22T18:51:37.640Z,31.55
2022-10-22T18:56:39.446Z,37.53
2022-10-22T19:01:39.681Z,36.67
2022-10-22T19:06:40.686Z,39.58
2022-10-22T19:11:42.387Z,33.05
2022-10-22T19:16:44.587Z,30.98
2022-10-22T19:21:43.415Z,27.08
2022-10-22T19:26:42.880Z,24.40
2022-10-22T19:31:41.807Z,31.60
2022-10-22T19:36:42.365Z,34.42
2022-10-22T19:41:41.145Z,26.75
2022-10-22T19:46:40.357Z,28.05
2022-10-22T19:51:40.266Z,28.58
2022-10-22T19:56:41.337Z,33.90
2022-10-22T20:01:40.116Z,26.25
2022-10-22T20:06:38.923Z,27.83
2022-10-22T20:11:37.766Z,33.58
2022-10-22T20:16:38.450Z,31.70
2022-10-22T20:21:40.436Z,29.00
2022-10-22T20:26:39.329Z,27.40
2022-10-22T20:31:39.528Z,24.80
2022-10-22T20:36:38.404Z,24.98
2022-10-22T20:41:40.387Z,27.65
2022-10-22T20:46:40.586Z,22.53
2022-10-22T20:51:39.739Z,29.67
2022-10-22T20:56:40.564Z,24.65
2022-10-22T21:01:42.849Z,20.83
2022-10-22T21:06:43.207Z,22.55
2022-10-22T21:11:43.967Z,26.10
2022-10-22T21:16:45.923Z,24.92
2022-10-22T21:21:44.724Z,20.37
2022-10-22T21:26:44.701Z,23.23
2022-10-22T21:31:58.912Z,23.33
2022-10-22T21:36:57.914Z,20.35
2022-10-22T21:41:56.829Z,20.60
2022-10-22T21:46:57.086Z,18.63
2022-10-22T21:51:55.888Z,23.25
2022-10-22T21:56:54.697Z,23.63
2022-10-22T22:01:53.503Z,22.55
2022-10-22T22:06:54.093Z,22.92
2022-10-22T22:11:52.891Z,24.40
2022-10-22T22:16:51.655Z,23.13
2022-10-22T22:21:52.475Z,24.65
2022-10-22T22:26:52.681Z,18.90
2022-10-22T22:31:51.461Z,20.30
2022-10-22T22:36:50.567Z,18.17
2022-10-22T22:41:49.689Z,19.52
2022-10-22T22:46:49.938Z,19.10
2022-10-22T22:51:52.085Z,21.00
2022-10-22T22:56:51.509Z,17.77
2022-10-22T23:01:51.734Z,19.08
2022-10-22T23:06:51.060Z,22.95
2022-10-22T23:11:50.763Z,20.30
2022-10-22T23:16:52.494Z,22.38
2022-10-22T23:21:52.869Z,17.20
2022-10-22T23:26:53.930Z,20.23
2022-10-22T23:31:54.730Z,19.67
2022-10-22T23:36:54.457Z,25.15
2022-10-22T23:41:54.085Z,21.15
2022-10-22T23:46:55.271Z,23.55
2022-10-22T23:51:54.070Z,21.52
2022-10-22T23:56:52.869Z,16.75
